sensor_id;sensor_type;location;lat;lon;timestamp;P1;durP1;ratioP1;P2;durP2;ratioP2
24859;SDS011;12936;52.006;4.350;2024-01-07T00:01:09;13.87;;;9.13;;
24859;SDS011;12936;52.006;4.350;2024-01-07T00:03:38;11.40;;;7.60;;
24859;SDS011;12936;52.006;4.350;2024-01-07T00:06:11;12.67;;;8.87;;
24859;SDS011;12936;52.006;4.350;2024-01-07T00:08:39;12.13;;;8.87;;
24859;SDS011;12936;52.006;4.350;2024-01-07T00:11:08;11.53;;;8.33;;
24859;SDS011;12936;52.006;4.350;2024-01-07T00:13:36;12.83;;;8.47;;
24859;SDS011;12936;52.006;4.350;2024-01-07T00:16:13;11.90;;;7.70;;
24859;SDS011;12936;52.006;4.350;2024-01-07T00:18:53;11.50;;;8.53;;
24859;SDS011;12936;52.006;4.350;2024-01-07T00:21:24;13.50;;;8.57;;
24859;SDS011;12936;52.006;4.350;2024-01-07T00:23:58;10.20;;;7.23;;
24859;SDS011;12936;52.006;4.350;2024-01-07T00:26:28;11.30;;;8.40;;
24859;SDS011;12936;52.006;4.350;2024-01-07T00:29:03;13.53;;;9.40;;
24859;SDS011;12936;52.006;4.350;2024-01-07T00:31:33;11.67;;;8.83;;
24859;SDS011;12936;52.006;4.350;2024-01-07T00:34:02;14.30;;;9.97;;
24859;SDS011;12936;52.006;4.350;2024-01-07T00:36:34;13.63;;;10.57;;
24859;SDS011;12936;52.006;4.350;2024-01-07T00:39:02;12.90;;;9.17;;
24859;SDS011;12936;52.006;4.350;2024-01-07T00:41:33;15.27;;;9.67;;
24859;SDS011;12936;52.006;4.350;2024-01-07T00:44:02;13.57;;;9.87;;
24859;SDS011;12936;52.006;4.350;2024-01-07T00:46:34;11.43;;;8.87;;
24859;SDS011;12936;52.006;4.350;2024-01-07T00:49:02;12.17;;;8.70;;
24859;SDS011;12936;52.006;4.350;2024-01-07T00:51:32;13.00;;;8.63;;
24859;SDS011;12936;52.006;4.350;2024-01-07T00:54:03;16.37;;;10.03;;
24859;SDS011;12936;52.006;4.350;2024-01-07T00:56:37;13.37;;;9.40;;
24859;SDS011;12936;52.006;4.350;2024-01-07T00:59:06;15.33;;;7.90;;
24859;SDS011;12936;52.006;4.350;2024-01-07T01:01:56;16.77;;;10.70;;
24859;SDS011;12936;52.006;4.350;2024-01-07T01:04:26;14.37;;;10.50;;
24859;SDS011;12936;52.006;4.350;2024-01-07T01:06:55;16.03;;;10.97;;
24859;SDS011;12936;52.006;4.350;2024-01-07T01:09:27;16.23;;;10.20;;
24859;SDS011;12936;52.006;4.350;2024-01-07T01:11:56;12.17;;;9.30;;
24859;SDS011;12936;52.006;4.350;2024-01-07T01:14:27;14.63;;;10.33;;
24859;SDS011;12936;52.006;4.350;2024-01-07T01:17:00;14.00;;;9.53;;
24859;SDS011;12936;52.006;4.350;2024-01-07T01:19:31;11.47;;;8.20;;
24859;SDS011;12936;52.006;4.350;2024-01-07T01:22:01;14.00;;;10.77;;
24859;SDS011;12936;52.006;4.350;2024-01-07T01:24:50;12.97;;;9.10;;
24859;SDS011;12936;52.006;4.350;2024-01-07T01:27:22;13.67;;;9.53;;
24859;SDS011;12936;52.006;4.350;2024-01-07T01:29:54;13.80;;;9.63;;
24859;SDS011;12936;52.006;4.350;2024-01-07T01:32:26;15.17;;;9.83;;
24859;SDS011;12936;52.006;4.350;2024-01-07T01:34:54;13.17;;;10.10;;
24859;SDS011;12936;52.006;4.350;2024-01-07T01:37:23;16.33;;;10.10;;
24859;SDS011;12936;52.006;4.350;2024-01-07T01:39:52;12.90;;;9.60;;
24859;SDS011;12936;52.006;4.350;2024-01-07T01:42:22;12.80;;;9.67;;
24859;SDS011;12936;52.006;4.350;2024-01-07T01:44:50;14.13;;;10.23;;
24859;SDS011;12936;52.006;4.350;2024-01-07T01:47:27;13.77;;;9.60;;
24859;SDS011;12936;52.006;4.350;2024-01-07T01:50:17;12.60;;;9.50;;
24859;SDS011;12936;52.006;4.350;2024-01-07T01:53:07;14.00;;;9.17;;
24859;SDS011;12936;52.006;4.350;2024-01-07T01:55:35;13.30;;;10.10;;
24859;SDS011;12936;52.006;4.350;2024-01-07T01:58:03;14.63;;;9.97;;
24859;SDS011;12936;52.006;4.350;2024-01-07T02:00:32;13.67;;;9.27;;
24859;SDS011;12936;52.006;4.350;2024-01-07T02:03:02;15.77;;;9.67;;
24859;SDS011;12936;52.006;4.350;2024-01-07T02:05:35;14.10;;;10.23;;
24859;SDS011;12936;52.006;4.350;2024-01-07T02:08:07;12.33;;;7.73;;
24859;SDS011;12936;52.006;4.350;2024-01-07T02:10:35;12.80;;;9.40;;
24859;SDS011;12936;52.006;4.350;2024-01-07T02:13:08;11.27;;;8.23;;
24859;SDS011;12936;52.006;4.350;2024-01-07T02:15:37;14.97;;;10.70;;
24859;SDS011;12936;52.006;4.350;2024-01-07T02:18:10;13.80;;;10.30;;
24859;SDS011;12936;52.006;4.350;2024-01-07T02:20:41;14.87;;;10.73;;
24859;SDS011;12936;52.006;4.350;2024-01-07T02:23:39;15.73;;;10.57;;
24859;SDS011;12936;52.006;4.350;2024-01-07T02:26:11;12.33;;;8.33;;
24859;SDS011;12936;52.006;4.350;2024-01-07T02:28:40;15.00;;;9.63;;
24859;SDS011;12936;52.006;4.350;2024-01-07T02:31:09;18.17;;;11.37;;
24859;SDS011;12936;52.006;4.350;2024-01-07T02:34:20;12.73;;;8.60;;
24859;SDS011;12936;52.006;4.350;2024-01-07T02:36:49;15.97;;;11.33;;
24859;SDS011;12936;52.006;4.350;2024-01-07T02:39:17;15.67;;;10.87;;
24859;SDS011;12936;52.006;4.350;2024-01-07T02:41:47;15.30;;;10.03;;
24859;SDS011;12936;52.006;4.350;2024-01-07T02:44:24;15.63;;;10.93;;
24859;SDS011;12936;52.006;4.350;2024-01-07T02:47:01;15.93;;;11.80;;
24859;SDS011;12936;52.006;4.350;2024-01-07T02:50:05;15.07;;;11.17;;
24859;SDS011;12936;52.006;4.350;2024-01-07T02:52:34;15.33;;;10.43;;
24859;SDS011;12936;52.006;4.350;2024-01-07T02:55:02;13.53;;;8.17;;
24859;SDS011;12936;52.006;4.350;2024-01-07T02:57:34;13.33;;;9.20;;
24859;SDS011;12936;52.006;4.350;2024-01-07T03:00:26;14.20;;;10.30;;
24859;SDS011;12936;52.006;4.350;2024-01-07T03:02:55;16.70;;;11.00;;
24859;SDS011;12936;52.006;4.350;2024-01-07T03:05:24;17.43;;;11.00;;
24859;SDS011;12936;52.006;4.350;2024-01-07T03:08:06;15.77;;;11.67;;
24859;SDS011;12936;52.006;4.350;2024-01-07T03:10:34;14.17;;;10.33;;
24859;SDS011;12936;52.006;4.350;2024-01-07T03:13:06;14.33;;;10.50;;
24859;SDS011;12936;52.006;4.350;2024-01-07T03:15:50;14.67;;;10.27;;
24859;SDS011;12936;52.006;4.350;2024-01-07T03:18:18;15.50;;;7.90;;
24859;SDS011;12936;52.006;4.350;2024-01-07T03:20:47;15.33;;;8.90;;
24859;SDS011;12936;52.006;4.350;2024-01-07T03:23:16;14.30;;;10.43;;
24859;SDS011;12936;52.006;4.350;2024-01-07T03:25:45;16.33;;;10.10;;
24859;SDS011;12936;52.006;4.350;2024-01-07T03:28:15;15.63;;;10.40;;
24859;SDS011;12936;52.006;4.350;2024-01-07T03:30:46;16.53;;;9.70;;
24859;SDS011;12936;52.006;4.350;2024-01-07T03:33:17;14.30;;;9.93;;
24859;SDS011;12936;52.006;4.350;2024-01-07T03:35:46;13.57;;;9.20;;
24859;SDS011;12936;52.006;4.350;2024-01-07T03:38:16;12.13;;;8.53;;
24859;SDS011;12936;52.006;4.350;2024-01-07T03:40:50;14.97;;;10.30;;
24859;SDS011;12936;52.006;4.350;2024-01-07T03:43:20;13.30;;;9.77;;
24859;SDS011;12936;52.006;4.350;2024-01-07T03:45:48;15.97;;;10.83;;
24859;SDS011;12936;52.006;4.350;2024-01-07T03:48:18;10.67;;;7.60;;
24859;SDS011;12936;52.006;4.350;2024-01-07T03:51:08;13.33;;;9.97;;
24859;SDS011;12936;52.006;4.350;2024-01-07T03:53:37;14.10;;;10.83;;
24859;SDS011;12936;52.006;4.350;2024-01-07T03:56:06;12.70;;;8.53;;
24859;SDS011;12936;52.006;4.350;2024-01-07T03:58:37;11.10;;;8.03;;
24859;SDS011;12936;52.006;4.350;2024-01-07T04:01:06;15.97;;;11.13;;
24859;SDS011;12936;52.006;4.350;2024-01-07T04:03:40;17.23;;;11.03;;
24859;SDS011;12936;52.006;4.350;2024-01-07T04:06:09;18.43;;;11.80;;
24859;SDS011;12936;52.006;4.350;2024-01-07T04:08:49;15.67;;;10.70;;
24859;SDS011;12936;52.006;4.350;2024-01-07T04:11:19;16.23;;;11.67;;
24859;SDS011;12936;52.006;4.350;2024-01-07T04:14:13;13.10;;;9.70;;
24859;SDS011;12936;52.006;4.350;2024-01-07T04:16:42;18.47;;;12.17;;
24859;SDS011;12936;52.006;4.350;2024-01-07T04:19:11;17.27;;;12.47;;
24859;SDS011;12936;52.006;4.350;2024-01-07T04:21:40;16.67;;;12.07;;
24859;SDS011;12936;52.006;4.350;2024-01-07T04:24:15;15.80;;;11.47;;
24859;SDS011;12936;52.006;4.350;2024-01-07T04:26:45;14.33;;;10.20;;
24859;SDS011;12936;52.006;4.350;2024-01-07T04:29:16;17.13;;;11.87;;
24859;SDS011;12936;52.006;4.350;2024-01-07T04:31:46;15.60;;;11.03;;
24859;SDS011;12936;52.006;4.350;2024-01-07T04:34:15;15.63;;;11.53;;
24859;SDS011;12936;52.006;4.350;2024-01-07T04:36:44;17.77;;;12.93;;
24859;SDS011;12936;52.006;4.350;2024-01-07T04:39:15;16.57;;;11.07;;
24859;SDS011;12936;52.006;4.350;2024-01-07T04:41:48;18.30;;;13.23;;
24859;SDS011;12936;52.006;4.350;2024-01-07T04:44:20;18.97;;;12.57;;
24859;SDS011;12936;52.006;4.350;2024-01-07T04:46:51;18.33;;;12.80;;
24859;SDS011;12936;52.006;4.350;2024-01-07T04:49:21;20.57;;;12.23;;
24859;SDS011;12936;52.006;4.350;2024-01-07T04:52:11;16.60;;;11.37;;
24859;SDS011;12936;52.006;4.350;2024-01-07T04:54:42;15.83;;;11.43;;
24859;SDS011;12936;52.006;4.350;2024-01-07T04:57:11;14.67;;;10.13;;
24859;SDS011;12936;52.006;4.350;2024-01-07T04:59:43;18.37;;;12.17;;
24859;SDS011;12936;52.006;4.350;2024-01-07T05:02:13;18.97;;;12.70;;
24859;SDS011;12936;52.006;4.350;2024-01-07T05:04:44;27.07;;;14.57;;
24859;SDS011;12936;52.006;4.350;2024-01-07T05:07:12;19.33;;;12.80;;
24859;SDS011;12936;52.006;4.350;2024-01-07T05:09:41;19.33;;;13.43;;
24859;SDS011;12936;52.006;4.350;2024-01-07T05:12:11;18.40;;;12.87;;
24859;SDS011;12936;52.006;4.350;2024-01-07T05:14:40;17.23;;;12.17;;
24859;SDS011;12936;52.006;4.350;2024-01-07T05:17:13;19.20;;;12.47;;
24859;SDS011;12936;52.006;4.350;2024-01-07T05:19:43;18.83;;;13.53;;
24859;SDS011;12936;52.006;4.350;2024-01-07T05:22:16;20.70;;;12.57;;
24859;SDS011;12936;52.006;4.350;2024-01-07T05:24:48;19.07;;;12.73;;
24859;SDS011;12936;52.006;4.350;2024-01-07T05:27:18;19.53;;;12.10;;
24859;SDS011;12936;52.006;4.350;2024-01-07T05:29:49;14.33;;;10.90;;
24859;SDS011;12936;52.006;4.350;2024-01-07T05:32:21;15.93;;;10.83;;
24859;SDS011;12936;52.006;4.350;2024-01-07T05:34:50;17.23;;;11.30;;
24859;SDS011;12936;52.006;4.350;2024-01-07T05:37:20;17.97;;;12.10;;
24859;SDS011;12936;52.006;4.350;2024-01-07T05:39:52;16.40;;;12.20;;
24859;SDS011;12936;52.006;4.350;2024-01-07T05:42:48;15.27;;;10.87;;
24859;SDS011;12936;52.006;4.350;2024-01-07T05:45:20;12.97;;;8.60;;
24859;SDS011;12936;52.006;4.350;2024-01-07T05:47:50;16.67;;;11.13;;
24859;SDS011;12936;52.006;4.350;2024-01-07T05:50:21;13.37;;;9.80;;
24859;SDS011;12936;52.006;4.350;2024-01-07T05:53:09;15.87;;;11.20;;
24859;SDS011;12936;52.006;4.350;2024-01-07T05:55:59;15.43;;;9.93;;
24859;SDS011;12936;52.006;4.350;2024-01-07T05:58:29;13.17;;;10.40;;
24859;SDS011;12936;52.006;4.350;2024-01-07T06:01:07;17.40;;;11.93;;
24859;SDS011;12936;52.006;4.350;2024-01-07T06:03:38;16.07;;;10.13;;
24859;SDS011;12936;52.006;4.350;2024-01-07T06:06:11;17.50;;;10.90;;
24859;SDS011;12936;52.006;4.350;2024-01-07T06:08:42;17.70;;;12.47;;
24859;SDS011;12936;52.006;4.350;2024-01-07T06:11:12;17.93;;;11.63;;
24859;SDS011;12936;52.006;4.350;2024-01-07T06:13:46;17.73;;;12.57;;
24859;SDS011;12936;52.006;4.350;2024-01-07T06:16:16;17.23;;;12.30;;
24859;SDS011;12936;52.006;4.350;2024-01-07T06:18:46;16.70;;;11.37;;
24859;SDS011;12936;52.006;4.350;2024-01-07T06:21:15;21.87;;;13.73;;
24859;SDS011;12936;52.006;4.350;2024-01-07T06:23:44;17.67;;;11.63;;
24859;SDS011;12936;52.006;4.350;2024-01-07T06:26:13;14.93;;;11.47;;
24859;SDS011;12936;52.006;4.350;2024-01-07T06:29:03;17.37;;;13.60;;
24859;SDS011;12936;52.006;4.350;2024-01-07T06:31:31;19.47;;;12.83;;
24859;SDS011;12936;52.006;4.350;2024-01-07T06:34:02;18.40;;;13.03;;
24859;SDS011;12936;52.006;4.350;2024-01-07T06:36:30;20.00;;;12.90;;
24859;SDS011;12936;52.006;4.350;2024-01-07T06:38:59;20.20;;;13.40;;
24859;SDS011;12936;52.006;4.350;2024-01-07T06:41:27;17.27;;;12.30;;
24859;SDS011;12936;52.006;4.350;2024-01-07T06:43:55;14.43;;;9.00;;
24859;SDS011;12936;52.006;4.350;2024-01-07T06:46:23;22.23;;;15.33;;
24859;SDS011;12936;52.006;4.350;2024-01-07T06:48:52;21.27;;;13.47;;
24859;SDS011;12936;52.006;4.350;2024-01-07T06:51:21;23.20;;;14.40;;
24859;SDS011;12936;52.006;4.350;2024-01-07T06:53:50;18.67;;;12.13;;
24859;SDS011;12936;52.006;4.350;2024-01-07T06:56:19;21.43;;;14.37;;
24859;SDS011;12936;52.006;4.350;2024-01-07T06:58:50;20.23;;;13.43;;
24859;SDS011;12936;52.006;4.350;2024-01-07T07:01:19;21.43;;;13.90;;
24859;SDS011;12936;52.006;4.350;2024-01-07T07:03:50;18.60;;;13.57;;
24859;SDS011;12936;52.006;4.350;2024-01-07T07:06:18;23.07;;;15.27;;
24859;SDS011;12936;52.006;4.350;2024-01-07T07:08:48;22.80;;;15.10;;
24859;SDS011;12936;52.006;4.350;2024-01-07T07:11:16;20.73;;;13.80;;
24859;SDS011;12936;52.006;4.350;2024-01-07T07:13:44;21.27;;;14.07;;
24859;SDS011;12936;52.006;4.350;2024-01-07T07:16:12;20.13;;;14.70;;
24859;SDS011;12936;52.006;4.350;2024-01-07T07:18:41;21.07;;;14.23;;
24859;SDS011;12936;52.006;4.350;2024-01-07T07:21:09;19.00;;;12.70;;
24859;SDS011;12936;52.006;4.350;2024-01-07T07:23:37;20.17;;;12.70;;
24859;SDS011;12936;52.006;4.350;2024-01-07T07:26:09;21.00;;;14.73;;
24859;SDS011;12936;52.006;4.350;2024-01-07T07:28:37;18.03;;;12.20;;
24859;SDS011;12936;52.006;4.350;2024-01-07T07:31:05;21.80;;;13.50;;
24859;SDS011;12936;52.006;4.350;2024-01-07T07:33:34;21.20;;;13.43;;
24859;SDS011;12936;52.006;4.350;2024-01-07T07:36:02;20.90;;;13.87;;
24859;SDS011;12936;52.006;4.350;2024-01-07T07:38:31;21.27;;;13.90;;
24859;SDS011;12936;52.006;4.350;2024-01-07T07:40:59;21.37;;;12.50;;
24859;SDS011;12936;52.006;4.350;2024-01-07T07:43:29;20.63;;;14.03;;
24859;SDS011;12936;52.006;4.350;2024-01-07T07:45:57;22.87;;;13.57;;
24859;SDS011;12936;52.006;4.350;2024-01-07T07:48:28;24.40;;;13.00;;
24859;SDS011;12936;52.006;4.350;2024-01-07T07:50:56;20.87;;;13.93;;
24859;SDS011;12936;52.006;4.350;2024-01-07T07:53:24;22.23;;;14.37;;
24859;SDS011;12936;52.006;4.350;2024-01-07T07:55:52;18.90;;;13.87;;
24859;SDS011;12936;52.006;4.350;2024-01-07T07:58:21;17.63;;;12.37;;
24859;SDS011;12936;52.006;4.350;2024-01-07T08:00:50;19.03;;;12.93;;
24859;SDS011;12936;52.006;4.350;2024-01-07T08:03:19;16.70;;;11.47;;
24859;SDS011;12936;52.006;4.350;2024-01-07T08:05:47;16.63;;;11.50;;
24859;SDS011;12936;52.006;4.350;2024-01-07T08:08:16;17.10;;;11.00;;
24859;SDS011;12936;52.006;4.350;2024-01-07T08:10:44;15.60;;;11.13;;
24859;SDS011;12936;52.006;4.350;2024-01-07T08:13:13;17.50;;;11.03;;
24859;SDS011;12936;52.006;4.350;2024-01-07T08:15:41;17.17;;;11.57;;
24859;SDS011;12936;52.006;4.350;2024-01-07T08:18:11;17.23;;;12.00;;
24859;SDS011;12936;52.006;4.350;2024-01-07T08:20:39;10.50;;;6.60;;
24859;SDS011;12936;52.006;4.350;2024-01-07T08:23:07;17.90;;;11.20;;
24859;SDS011;12936;52.006;4.350;2024-01-07T08:25:36;16.17;;;11.07;;
24859;SDS011;12936;52.006;4.350;2024-01-07T08:28:05;14.03;;;9.10;;
24859;SDS011;12936;52.006;4.350;2024-01-07T08:30:33;14.83;;;9.97;;
24859;SDS011;12936;52.006;4.350;2024-01-07T08:33:02;11.80;;;9.13;;
24859;SDS011;12936;52.006;4.350;2024-01-07T08:35:32;13.00;;;9.00;;
24859;SDS011;12936;52.006;4.350;2024-01-07T08:38:00;14.40;;;8.90;;
24859;SDS011;12936;52.006;4.350;2024-01-07T08:40:29;13.37;;;9.80;;
24859;SDS011;12936;52.006;4.350;2024-01-07T08:42:58;14.07;;;10.40;;
24859;SDS011;12936;52.006;4.350;2024-01-07T08:45:26;15.23;;;10.27;;
24859;SDS011;12936;52.006;4.350;2024-01-07T08:47:55;15.13;;;10.70;;
24859;SDS011;12936;52.006;4.350;2024-01-07T08:50:23;14.40;;;9.77;;
24859;SDS011;12936;52.006;4.350;2024-01-07T08:52:54;16.37;;;10.63;;
24859;SDS011;12936;52.006;4.350;2024-01-07T08:55:22;15.40;;;9.63;;
24859;SDS011;12936;52.006;4.350;2024-01-07T08:57:50;15.87;;;9.93;;
24859;SDS011;12936;52.006;4.350;2024-01-07T09:00:19;13.93;;;10.50;;
24859;SDS011;12936;52.006;4.350;2024-01-07T09:02:52;17.33;;;10.63;;
24859;SDS011;12936;52.006;4.350;2024-01-07T09:05:20;14.17;;;9.70;;
24859;SDS011;12936;52.006;4.350;2024-01-07T09:07:49;14.10;;;9.90;;
24859;SDS011;12936;52.006;4.350;2024-01-07T09:10:20;14.17;;;9.27;;
24859;SDS011;12936;52.006;4.350;2024-01-07T09:12:48;13.03;;;9.50;;
24859;SDS011;12936;52.006;4.350;2024-01-07T09:15:18;16.97;;;10.57;;
24859;SDS011;12936;52.006;4.350;2024-01-07T09:17:46;16.17;;;10.33;;
24859;SDS011;12936;52.006;4.350;2024-01-07T09:20:15;11.13;;;7.37;;
24859;SDS011;12936;52.006;4.350;2024-01-07T09:22:43;15.47;;;10.37;;
24859;SDS011;12936;52.006;4.350;2024-01-07T09:25:11;15.20;;;10.93;;
24859;SDS011;12936;52.006;4.350;2024-01-07T09:27:41;19.13;;;10.60;;
24859;SDS011;12936;52.006;4.350;2024-01-07T09:30:10;15.73;;;10.43;;
24859;SDS011;12936;52.006;4.350;2024-01-07T09:32:41;11.03;;;6.30;;
24859;SDS011;12936;52.006;4.350;2024-01-07T09:35:09;18.00;;;11.47;;
24859;SDS011;12936;52.006;4.350;2024-01-07T09:37:37;16.40;;;11.27;;
24859;SDS011;12936;52.006;4.350;2024-01-07T09:40:06;19.23;;;11.27;;
24859;SDS011;12936;52.006;4.350;2024-01-07T09:42:38;14.87;;;10.53;;
24859;SDS011;12936;52.006;4.350;2024-01-07T09:45:08;12.37;;;8.27;;
24859;SDS011;12936;52.006;4.350;2024-01-07T09:47:41;12.13;;;8.27;;
24859;SDS011;12936;52.006;4.350;2024-01-07T09:50:12;11.60;;;6.93;;
24859;SDS011;12936;52.006;4.350;2024-01-07T09:52:42;14.20;;;10.00;;
24859;SDS011;12936;52.006;4.350;2024-01-07T09:55:12;13.73;;;8.73;;
24859;SDS011;12936;52.006;4.350;2024-01-07T09:57:48;12.70;;;9.33;;
24859;SDS011;12936;52.006;4.350;2024-01-07T10:00:18;15.03;;;10.00;;
24859;SDS011;12936;52.006;4.350;2024-01-07T10:02:46;13.47;;;8.70;;
24859;SDS011;12936;52.006;4.350;2024-01-07T10:05:14;15.53;;;10.23;;
24859;SDS011;12936;52.006;4.350;2024-01-07T10:07:43;14.23;;;9.30;;
24859;SDS011;12936;52.006;4.350;2024-01-07T10:10:14;12.30;;;9.00;;
24859;SDS011;12936;52.006;4.350;2024-01-07T10:12:44;13.60;;;9.73;;
24859;SDS011;12936;52.006;4.350;2024-01-07T10:15:13;12.33;;;8.37;;
24859;SDS011;12936;52.006;4.350;2024-01-07T10:17:43;10.13;;;7.00;;
24859;SDS011;12936;52.006;4.350;2024-01-07T10:20:15;12.80;;;7.77;;
24859;SDS011;12936;52.006;4.350;2024-01-07T10:22:46;11.77;;;7.20;;
24859;SDS011;12936;52.006;4.350;2024-01-07T10:25:18;10.97;;;6.87;;
24859;SDS011;12936;52.006;4.350;2024-01-07T10:27:47;12.37;;;7.80;;
24859;SDS011;12936;52.006;4.350;2024-01-07T10:30:16;8.27;;;5.80;;
24859;SDS011;12936;52.006;4.350;2024-01-07T10:32:46;14.30;;;9.20;;
24859;SDS011;12936;52.006;4.350;2024-01-07T10:35:15;11.70;;;8.00;;
24859;SDS011;12936;52.006;4.350;2024-01-07T10:37:48;16.07;;;9.80;;
24859;SDS011;12936;52.006;4.350;2024-01-07T10:40:16;11.53;;;9.07;;
24859;SDS011;12936;52.006;4.350;2024-01-07T10:42:45;13.07;;;8.37;;
24859;SDS011;12936;52.006;4.350;2024-01-07T10:45:16;12.37;;;8.30;;
24859;SDS011;12936;52.006;4.350;2024-01-07T10:47:44;9.07;;;6.43;;
24859;SDS011;12936;52.006;4.350;2024-01-07T10:50:17;9.47;;;6.77;;
24859;SDS011;12936;52.006;4.350;2024-01-07T10:52:48;12.17;;;8.23;;
24859;SDS011;12936;52.006;4.350;2024-01-07T10:55:18;7.50;;;5.70;;
24859;SDS011;12936;52.006;4.350;2024-01-07T10:57:50;10.30;;;6.60;;
24859;SDS011;12936;52.006;4.350;2024-01-07T11:00:23;8.40;;;5.77;;
24859;SDS011;12936;52.006;4.350;2024-01-07T11:02:57;9.67;;;6.53;;
24859;SDS011;12936;52.006;4.350;2024-01-07T11:08:24;9.90;;;6.03;;
24859;SDS011;12936;52.006;4.350;2024-01-07T11:10:58;10.83;;;7.37;;
24859;SDS011;12936;52.006;4.350;2024-01-07T11:13:33;7.57;;;4.50;;
24859;SDS011;12936;52.006;4.350;2024-01-07T11:16:04;8.50;;;5.93;;
24859;SDS011;12936;52.006;4.350;2024-01-07T11:18:46;8.43;;;5.83;;
24859;SDS011;12936;52.006;4.350;2024-01-07T11:21:22;9.83;;;5.27;;
24859;SDS011;12936;52.006;4.350;2024-01-07T11:23:52;7.67;;;5.30;;
24859;SDS011;12936;52.006;4.350;2024-01-07T11:26:21;9.70;;;5.83;;
24859;SDS011;12936;52.006;4.350;2024-01-07T11:28:50;9.70;;;6.27;;
24859;SDS011;12936;52.006;4.350;2024-01-07T11:31:19;7.63;;;4.60;;
24859;SDS011;12936;52.006;4.350;2024-01-07T11:33:50;11.20;;;6.13;;
24859;SDS011;12936;52.006;4.350;2024-01-07T11:36:19;11.20;;;6.07;;
24859;SDS011;12936;52.006;4.350;2024-01-07T11:38:48;11.80;;;5.20;;
24859;SDS011;12936;52.006;4.350;2024-01-07T11:41:20;8.53;;;5.30;;
24859;SDS011;12936;52.006;4.350;2024-01-07T11:43:53;8.30;;;5.40;;
24859;SDS011;12936;52.006;4.350;2024-01-07T11:46:23;9.83;;;5.97;;
24859;SDS011;12936;52.006;4.350;2024-01-07T11:48:54;8.77;;;5.20;;
24859;SDS011;12936;52.006;4.350;2024-01-07T11:51:25;8.20;;;6.10;;
24859;SDS011;12936;52.006;4.350;2024-01-07T11:53:54;10.07;;;6.13;;
24859;SDS011;12936;52.006;4.350;2024-01-07T11:56:23;9.03;;;4.57;;
24859;SDS011;12936;52.006;4.350;2024-01-07T11:58:52;8.43;;;5.80;;
24859;SDS011;12936;52.006;4.350;2024-01-07T12:01:22;6.80;;;4.53;;
24859;SDS011;12936;52.006;4.350;2024-01-07T12:03:54;8.90;;;5.80;;
24859;SDS011;12936;52.006;4.350;2024-01-07T12:06:23;7.00;;;4.97;;
24859;SDS011;12936;52.006;4.350;2024-01-07T12:08:52;10.97;;;5.63;;
24859;SDS011;12936;52.006;4.350;2024-01-07T12:11:21;6.73;;;4.47;;
24859;SDS011;12936;52.006;4.350;2024-01-07T12:13:50;5.23;;;4.00;;
24859;SDS011;12936;52.006;4.350;2024-01-07T12:16:19;4.43;;;2.83;;
24859;SDS011;12936;52.006;4.350;2024-01-07T12:18:48;6.13;;;3.53;;
24859;SDS011;12936;52.006;4.350;2024-01-07T12:21:19;4.87;;;3.93;;
24859;SDS011;12936;52.006;4.350;2024-01-07T12:23:48;7.20;;;3.73;;
24859;SDS011;12936;52.006;4.350;2024-01-07T12:26:18;9.00;;;4.67;;
24859;SDS011;12936;52.006;4.350;2024-01-07T12:28:52;5.17;;;3.63;;
24859;SDS011;12936;52.006;4.350;2024-01-07T12:31:21;5.47;;;3.53;;
24859;SDS011;12936;52.006;4.350;2024-01-07T12:33:51;3.97;;;3.13;;
24859;SDS011;12936;52.006;4.350;2024-01-07T12:36:22;8.30;;;5.10;;
24859;SDS011;12936;52.006;4.350;2024-01-07T12:38:51;6.90;;;5.20;;
24859;SDS011;12936;52.006;4.350;2024-01-07T12:41:20;9.47;;;5.60;;
24859;SDS011;12936;52.006;4.350;2024-01-07T12:43:49;9.77;;;6.37;;
24859;SDS011;12936;52.006;4.350;2024-01-07T12:46:18;8.20;;;5.23;;
24859;SDS011;12936;52.006;4.350;2024-01-07T12:48:47;8.67;;;6.23;;
24859;SDS011;12936;52.006;4.350;2024-01-07T12:51:16;8.37;;;5.47;;
24859;SDS011;12936;52.006;4.350;2024-01-07T12:53:51;10.23;;;6.20;;
24859;SDS011;12936;52.006;4.350;2024-01-07T12:56:23;8.97;;;5.80;;
24859;SDS011;12936;52.006;4.350;2024-01-07T12:58:51;10.13;;;4.73;;
24859;SDS011;12936;52.006;4.350;2024-01-07T13:04:17;6.63;;;4.67;;
24859;SDS011;12936;52.006;4.350;2024-01-07T13:07:09;7.40;;;4.50;;
24859;SDS011;12936;52.006;4.350;2024-01-07T13:09:39;5.93;;;3.67;;
24859;SDS011;12936;52.006;4.350;2024-01-07T13:12:09;5.43;;;4.10;;
24859;SDS011;12936;52.006;4.350;2024-01-07T13:14:37;8.33;;;3.97;;
24859;SDS011;12936;52.006;4.350;2024-01-07T13:17:09;4.80;;;3.30;;
24859;SDS011;12936;52.006;4.350;2024-01-07T13:19:37;6.13;;;3.70;;
24859;SDS011;12936;52.006;4.350;2024-01-07T13:22:06;5.40;;;3.43;;
24859;SDS011;12936;52.006;4.350;2024-01-07T13:24:35;3.73;;;2.67;;
24859;SDS011;12936;52.006;4.350;2024-01-07T13:27:08;3.67;;;2.40;;
24859;SDS011;12936;52.006;4.350;2024-01-07T13:29:36;5.57;;;2.97;;
24859;SDS011;12936;52.006;4.350;2024-01-07T13:32:05;6.53;;;2.83;;
24859;SDS011;12936;52.006;4.350;2024-01-07T13:34:34;5.60;;;2.87;;
24859;SDS011;12936;52.006;4.350;2024-01-07T13:37:02;3.87;;;2.60;;
24859;SDS011;12936;52.006;4.350;2024-01-07T13:39:31;2.60;;;2.20;;
24859;SDS011;12936;52.006;4.350;2024-01-07T13:42:00;3.30;;;2.40;;
24859;SDS011;12936;52.006;4.350;2024-01-07T13:44:30;4.40;;;2.50;;
24859;SDS011;12936;52.006;4.350;2024-01-07T13:47:01;4.00;;;2.17;;
24859;SDS011;12936;52.006;4.350;2024-01-07T13:49:32;5.10;;;2.70;;
24859;SDS011;12936;52.006;4.350;2024-01-07T13:52:00;4.47;;;2.57;;
24859;SDS011;12936;52.006;4.350;2024-01-07T13:54:29;4.20;;;2.73;;
24859;SDS011;12936;52.006;4.350;2024-01-07T13:56:58;5.07;;;2.70;;
24859;SDS011;12936;52.006;4.350;2024-01-07T13:59:31;4.10;;;2.17;;
24859;SDS011;12936;52.006;4.350;2024-01-07T14:01:59;3.30;;;1.97;;
24859;SDS011;12936;52.006;4.350;2024-01-07T14:04:29;4.37;;;3.30;;
24859;SDS011;12936;52.006;4.350;2024-01-07T14:06:58;4.40;;;2.93;;
24859;SDS011;12936;52.006;4.350;2024-01-07T14:09:27;4.63;;;2.97;;
24859;SDS011;12936;52.006;4.350;2024-01-07T14:11:58;3.40;;;2.13;;
24859;SDS011;12936;52.006;4.350;2024-01-07T14:14:26;5.60;;;2.37;;
24859;SDS011;12936;52.006;4.350;2024-01-07T14:16:56;5.77;;;2.30;;
24859;SDS011;12936;52.006;4.350;2024-01-07T14:19:25;3.67;;;2.67;;
24859;SDS011;12936;52.006;4.350;2024-01-07T14:21:56;4.03;;;2.60;;
24859;SDS011;12936;52.006;4.350;2024-01-07T14:24:27;3.47;;;2.63;;
24859;SDS011;12936;52.006;4.350;2024-01-07T14:26:55;2.27;;;2.00;;
24859;SDS011;12936;52.006;4.350;2024-01-07T14:29:25;4.20;;;2.70;;
24859;SDS011;12936;52.006;4.350;2024-01-07T14:31:54;3.37;;;2.60;;
24859;SDS011;12936;52.006;4.350;2024-01-07T14:34:24;4.07;;;2.20;;
24859;SDS011;12936;52.006;4.350;2024-01-07T14:36:53;7.30;;;2.77;;
24859;SDS011;12936;52.006;4.350;2024-01-07T14:39:21;5.40;;;2.23;;
24859;SDS011;12936;52.006;4.350;2024-01-07T14:41:49;3.17;;;2.13;;
24859;SDS011;12936;52.006;4.350;2024-01-07T14:44:18;3.73;;;2.63;;
24859;SDS011;12936;52.006;4.350;2024-01-07T14:46:54;3.03;;;2.13;;
24859;SDS011;12936;52.006;4.350;2024-01-07T14:49:27;3.33;;;2.17;;
24859;SDS011;12936;52.006;4.350;2024-01-07T14:51:59;2.83;;;1.87;;
24859;SDS011;12936;52.006;4.350;2024-01-07T14:54:27;3.23;;;1.93;;
24859;SDS011;12936;52.006;4.350;2024-01-07T14:56:58;3.73;;;2.17;;
24859;SDS011;12936;52.006;4.350;2024-01-07T14:59:26;3.60;;;2.17;;